sensor_id;sensor_type;location;lat;lon;timestamp;P1;durP1;ratioP1;P2;durP2;ratioP2
13588;SDS011;6865;52.552;13.434;2022-09-16T00:00:52;2.77;;;1.37;;
13588;SDS011;6865;52.552;13.434;2022-09-16T00:03:19;3.53;;;1.50;;
13588;SDS011;6865;52.552;13.434;2022-09-16T00:05:47;3.23;;;1.57;;
13588;SDS011;6865;52.552;13.434;2022-09-16T00:08:16;4.13;;;1.60;;
13588;SDS011;6865;52.552;13.434;2022-09-16T00:10:44;4.77;;;1.40;;
13588;SDS011;6865;52.552;13.434;2022-09-16T00:13:11;2.27;;;1.40;;
13588;SDS011;6865;52.552;13.434;2022-09-16T00:15:45;4.03;;;1.50;;
13588;SDS011;6865;52.552;13.434;2022-09-16T00:18:13;5.80;;;1.53;;
13588;SDS011;6865;52.552;13.434;2022-09-16T00:20:46;3.70;;;1.60;;
13588;SDS011;6865;52.552;13.434;2022-09-16T00:23:18;5.30;;;1.90;;
13588;SDS011;6865;52.552;13.434;2022-09-16T00:25:52;3.70;;;1.40;;
13588;SDS011;6865;52.552;13.434;2022-09-16T00:28:20;2.67;;;1.53;;
13588;SDS011;6865;52.552;13.434;2022-09-16T00:30:47;3.00;;;1.40;;
13588;SDS011;6865;52.552;13.434;2022-09-16T00:33:15;6.00;;;1.53;;
13588;SDS011;6865;52.552;13.434;2022-09-16T00:35:42;3.30;;;1.50;;
13588;SDS011;6865;52.552;13.434;2022-09-16T00:38:08;2.77;;;1.27;;
13588;SDS011;6865;52.552;13.434;2022-09-16T00:40:42;2.93;;;1.40;;
13588;SDS011;6865;52.552;13.434;2022-09-16T00:43:13;5.47;;;1.70;;
13588;SDS011;6865;52.552;13.434;2022-09-16T00:45:45;5.37;;;1.60;;
13588;SDS011;6865;52.552;13.434;2022-09-16T00:48:20;3.00;;;1.30;;
13588;SDS011;6865;52.552;13.434;2022-09-16T00:50:49;3.23;;;1.63;;
13588;SDS011;6865;52.552;13.434;2022-09-16T00:53:22;2.07;;;1.47;;
13588;SDS011;6865;52.552;13.434;2022-09-16T00:55:53;6.03;;;1.50;;
13588;SDS011;6865;52.552;13.434;2022-09-16T00:58:36;3.80;;;1.80;;
13588;SDS011;6865;52.552;13.434;2022-09-16T01:01:07;6.10;;;2.00;;
13588;SDS011;6865;52.552;13.434;2022-09-16T01:03:37;4.83;;;1.80;;
13588;SDS011;6865;52.552;13.434;2022-09-16T01:06:20;3.33;;;1.77;;
13588;SDS011;6865;52.552;13.434;2022-09-16T01:08:48;3.97;;;1.70;;
13588;SDS011;6865;52.552;13.434;2022-09-16T01:11:15;5.47;;;2.17;;
13588;SDS011;6865;52.552;13.434;2022-09-16T01:13:43;3.13;;;1.80;;
13588;SDS011;6865;52.552;13.434;2022-09-16T01:21:17;2.50;;;1.77;;
13588;SDS011;6865;52.552;13.434;2022-09-16T01:23:59;5.50;;;1.93;;
13588;SDS011;6865;52.552;13.434;2022-09-16T01:26:46;4.73;;;1.87;;
13588;SDS011;6865;52.552;13.434;2022-09-16T01:29:46;2.83;;;1.80;;
13588;SDS011;6865;52.552;13.434;2022-09-16T01:32:46;6.20;;;1.70;;
13588;SDS011;6865;52.552;13.434;2022-09-16T01:38:33;4.37;;;1.70;;
13588;SDS011;6865;52.552;13.434;2022-09-16T01:44:27;3.87;;;1.50;;
13588;SDS011;6865;52.552;13.434;2022-09-16T01:46:59;3.57;;;1.50;;
13588;SDS011;6865;52.552;13.434;2022-09-16T01:49:42;2.77;;;1.60;;
13588;SDS011;6865;52.552;13.434;2022-09-16T01:52:19;6.53;;;2.00;;
13588;SDS011;6865;52.552;13.434;2022-09-16T01:54:57;4.47;;;1.60;;
13588;SDS011;6865;52.552;13.434;2022-09-16T01:57:32;6.40;;;1.80;;
13588;SDS011;6865;52.552;13.434;2022-09-16T02:00:20;4.57;;;2.00;;
13588;SDS011;6865;52.552;13.434;2022-09-16T02:02:49;3.80;;;2.00;;
13588;SDS011;6865;52.552;13.434;2022-09-16T02:05:46;4.70;;;1.87;;
13588;SDS011;6865;52.552;13.434;2022-09-16T02:08:38;5.20;;;1.90;;
13588;SDS011;6865;52.552;13.434;2022-09-16T02:11:09;3.57;;;1.60;;
13588;SDS011;6865;52.552;13.434;2022-09-16T02:13:44;5.23;;;2.00;;
13588;SDS011;6865;52.552;13.434;2022-09-16T02:16:15;3.03;;;1.67;;
13588;SDS011;6865;52.552;13.434;2022-09-16T02:18:47;4.87;;;1.60;;
13588;SDS011;6865;52.552;13.434;2022-09-16T02:21:20;4.90;;;2.13;;
13588;SDS011;6865;52.552;13.434;2022-09-16T02:23:51;6.53;;;2.00;;
13588;SDS011;6865;52.552;13.434;2022-09-16T02:26:23;5.57;;;1.90;;
13588;SDS011;6865;52.552;13.434;2022-09-16T02:28:54;5.57;;;1.90;;
13588;SDS011;6865;52.552;13.434;2022-09-16T02:31:24;5.77;;;2.00;;
13588;SDS011;6865;52.552;13.434;2022-09-16T02:33:59;6.73;;;2.20;;
13588;SDS011;6865;52.552;13.434;2022-09-16T02:36:31;4.83;;;2.23;;
13588;SDS011;6865;52.552;13.434;2022-09-16T02:39:01;5.07;;;2.00;;
13588;SDS011;6865;52.552;13.434;2022-09-16T02:41:34;4.13;;;1.77;;
13588;SDS011;6865;52.552;13.434;2022-09-16T02:44:04;5.17;;;2.10;;
13588;SDS011;6865;52.552;13.434;2022-09-16T02:46:37;4.10;;;2.20;;
13588;SDS011;6865;52.552;13.434;2022-09-16T02:49:17;4.43;;;2.13;;
13588;SDS011;6865;52.552;13.434;2022-09-16T02:54:48;3.47;;;2.37;;
13588;SDS011;6865;52.552;13.434;2022-09-16T02:57:22;7.80;;;2.50;;
13588;SDS011;6865;52.552;13.434;2022-09-16T02:59:49;6.40;;;2.50;;
13588;SDS011;6865;52.552;13.434;2022-09-16T03:02:16;8.23;;;2.77;;
13588;SDS011;6865;52.552;13.434;2022-09-16T03:04:42;6.43;;;2.50;;
13588;SDS011;6865;52.552;13.434;2022-09-16T03:07:10;9.83;;;2.40;;
13588;SDS011;6865;52.552;13.434;2022-09-16T03:09:38;7.70;;;2.70;;
13588;SDS011;6865;52.552;13.434;2022-09-16T03:15:02;7.87;;;2.90;;
13588;SDS011;6865;52.552;13.434;2022-09-16T03:17:56;8.73;;;2.80;;
13588;SDS011;6865;52.552;13.434;2022-09-16T03:20:50;6.00;;;2.47;;
13588;SDS011;6865;52.552;13.434;2022-09-16T03:23:28;6.27;;;2.67;;
13588;SDS011;6865;52.552;13.434;2022-09-16T03:26:14;6.30;;;2.70;;
13588;SDS011;6865;52.552;13.434;2022-09-16T03:31:52;5.40;;;2.60;;
13588;SDS011;6865;52.552;13.434;2022-09-16T03:34:25;8.73;;;2.60;;
13588;SDS011;6865;52.552;13.434;2022-09-16T03:37:02;6.77;;;3.00;;
13588;SDS011;6865;52.552;13.434;2022-09-16T03:39:33;5.80;;;2.90;;
13588;SDS011;6865;52.552;13.434;2022-09-16T03:42:01;5.07;;;2.80;;
13588;SDS011;6865;52.552;13.434;2022-09-16T03:44:30;9.50;;;2.70;;
13588;SDS011;6865;52.552;13.434;2022-09-16T03:46:58;5.87;;;2.83;;
13588;SDS011;6865;52.552;13.434;2022-09-16T03:49:24;7.17;;;3.17;;
13588;SDS011;6865;52.552;13.434;2022-09-16T03:51:51;6.77;;;3.60;;
13588;SDS011;6865;52.552;13.434;2022-09-16T03:54:17;10.93;;;4.03;;
13588;SDS011;6865;52.552;13.434;2022-09-16T03:56:44;7.00;;;3.37;;
13588;SDS011;6865;52.552;13.434;2022-09-16T03:59:11;6.57;;;3.83;;
13588;SDS011;6865;52.552;13.434;2022-09-16T04:01:37;7.43;;;3.93;;
13588;SDS011;6865;52.552;13.434;2022-09-16T04:04:04;7.33;;;4.30;;
13588;SDS011;6865;52.552;13.434;2022-09-16T04:06:30;7.80;;;4.07;;
13588;SDS011;6865;52.552;13.434;2022-09-16T04:08:57;9.03;;;4.50;;
13588;SDS011;6865;52.552;13.434;2022-09-16T04:11:26;8.70;;;4.03;;
13588;SDS011;6865;52.552;13.434;2022-09-16T04:13:54;7.83;;;3.63;;
13588;SDS011;6865;52.552;13.434;2022-09-16T04:16:21;10.33;;;4.13;;
13588;SDS011;6865;52.552;13.434;2022-09-16T04:18:48;8.33;;;4.10;;
13588;SDS011;6865;52.552;13.434;2022-09-16T04:21:14;8.47;;;3.60;;
13588;SDS011;6865;52.552;13.434;2022-09-16T04:23:42;14.03;;;3.93;;
13588;SDS011;6865;52.552;13.434;2022-09-16T04:26:09;9.43;;;4.00;;
13588;SDS011;6865;52.552;13.434;2022-09-16T04:28:36;5.60;;;3.40;;
13588;SDS011;6865;52.552;13.434;2022-09-16T04:31:04;5.73;;;3.90;;
13588;SDS011;6865;52.552;13.434;2022-09-16T04:33:32;7.37;;;3.47;;
13588;SDS011;6865;52.552;13.434;2022-09-16T04:36:03;5.03;;;3.40;;
13588;SDS011;6865;52.552;13.434;2022-09-16T04:38:32;10.47;;;3.40;;
13588;SDS011;6865;52.552;13.434;2022-09-16T04:40:59;9.20;;;3.80;;
13588;SDS011;6865;52.552;13.434;2022-09-16T04:43:31;10.27;;;4.70;;
13588;SDS011;6865;52.552;13.434;2022-09-16T04:45:58;11.50;;;5.87;;
13588;SDS011;6865;52.552;13.434;2022-09-16T04:48:25;8.33;;;5.37;;
13588;SDS011;6865;52.552;13.434;2022-09-16T04:50:52;10.53;;;6.63;;
13588;SDS011;6865;52.552;13.434;2022-09-16T04:53:20;13.87;;;6.43;;
13588;SDS011;6865;52.552;13.434;2022-09-16T04:55:46;13.33;;;5.77;;
13588;SDS011;6865;52.552;13.434;2022-09-16T04:58:13;12.70;;;5.83;;
13588;SDS011;6865;52.552;13.434;2022-09-16T05:00:40;9.00;;;5.27;;
13588;SDS011;6865;52.552;13.434;2022-09-16T05:03:06;10.00;;;5.40;;
13588;SDS011;6865;52.552;13.434;2022-09-16T05:05:33;7.00;;;4.50;;
13588;SDS011;6865;52.552;13.434;2022-09-16T05:08:00;8.20;;;4.53;;
13588;SDS011;6865;52.552;13.434;2022-09-16T05:10:26;8.37;;;4.37;;
13588;SDS011;6865;52.552;13.434;2022-09-16T05:12:53;10.33;;;4.23;;
13588;SDS011;6865;52.552;13.434;2022-09-16T05:15:20;6.03;;;3.30;;
13588;SDS011;6865;52.552;13.434;2022-09-16T05:17:51;10.40;;;4.57;;
13588;SDS011;6865;52.552;13.434;2022-09-16T05:20:18;9.70;;;3.90;;
13588;SDS011;6865;52.552;13.434;2022-09-16T05:22:47;9.47;;;4.30;;
13588;SDS011;6865;52.552;13.434;2022-09-16T05:25:15;9.73;;;4.90;;
13588;SDS011;6865;52.552;13.434;2022-09-16T05:27:41;10.53;;;4.27;;
13588;SDS011;6865;52.552;13.434;2022-09-16T05:30:08;12.13;;;4.90;;
13588;SDS011;6865;52.552;13.434;2022-09-16T05:32:35;10.63;;;4.70;;
13588;SDS011;6865;52.552;13.434;2022-09-16T05:35:02;7.80;;;4.60;;
13588;SDS011;6865;52.552;13.434;2022-09-16T05:37:29;12.83;;;4.40;;
13588;SDS011;6865;52.552;13.434;2022-09-16T05:39:56;5.17;;;3.40;;
13588;SDS011;6865;52.552;13.434;2022-09-16T05:42:23;7.63;;;3.63;;
13588;SDS011;6865;52.552;13.434;2022-09-16T05:44:49;10.37;;;3.77;;
13588;SDS011;6865;52.552;13.434;2022-09-16T05:47:16;10.57;;;3.60;;
13588;SDS011;6865;52.552;13.434;2022-09-16T05:49:42;8.13;;;3.93;;
13588;SDS011;6865;52.552;13.434;2022-09-16T05:52:09;11.23;;;3.57;;
13588;SDS011;6865;52.552;13.434;2022-09-16T05:54:36;8.57;;;4.50;;
13588;SDS011;6865;52.552;13.434;2022-09-16T05:57:02;7.80;;;4.07;;
13588;SDS011;6865;52.552;13.434;2022-09-16T05:59:32;10.03;;;3.70;;
13588;SDS011;6865;52.552;13.434;2022-09-16T06:01:59;10.63;;;3.97;;
13588;SDS011;6865;52.552;13.434;2022-09-16T06:04:25;7.07;;;3.60;;
13588;SDS011;6865;52.552;13.434;2022-09-16T06:06:52;12.23;;;3.73;;
13588;SDS011;6865;52.552;13.434;2022-09-16T06:09:19;6.93;;;3.50;;
13588;SDS011;6865;52.552;13.434;2022-09-16T06:11:48;9.40;;;4.53;;
13588;SDS011;6865;52.552;13.434;2022-09-16T06:14:17;7.53;;;3.50;;
13588;SDS011;6865;52.552;13.434;2022-09-16T06:16:44;7.43;;;3.40;;
13588;SDS011;6865;52.552;13.434;2022-09-16T06:19:12;8.43;;;3.00;;
13588;SDS011;6865;52.552;13.434;2022-09-16T06:21:40;8.23;;;3.23;;
13588;SDS011;6865;52.552;13.434;2022-09-16T06:24:09;8.27;;;3.10;;
13588;SDS011;6865;52.552;13.434;2022-09-16T06:26:37;6.67;;;3.20;;
13588;SDS011;6865;52.552;13.434;2022-09-16T06:29:05;8.03;;;3.37;;
13588;SDS011;6865;52.552;13.434;2022-09-16T06:31:32;7.10;;;3.33;;
13588;SDS011;6865;52.552;13.434;2022-09-16T06:33:59;8.53;;;4.33;;
13588;SDS011;6865;52.552;13.434;2022-09-16T06:36:44;8.90;;;3.87;;
13588;SDS011;6865;52.552;13.434;2022-09-16T06:39:12;6.07;;;3.07;;
13588;SDS011;6865;52.552;13.434;2022-09-16T06:41:40;8.10;;;3.53;;
13588;SDS011;6865;52.552;13.434;2022-09-16T06:44:06;6.13;;;3.10;;
13588;SDS011;6865;52.552;13.434;2022-09-16T06:46:33;5.07;;;2.67;;
13588;SDS011;6865;52.552;13.434;2022-09-16T06:48:59;5.17;;;3.20;;
13588;SDS011;6865;52.552;13.434;2022-09-16T06:51:31;5.73;;;2.80;;
13588;SDS011;6865;52.552;13.434;2022-09-16T06:53:59;5.87;;;2.47;;
13588;SDS011;6865;52.552;13.434;2022-09-16T06:56:28;5.13;;;2.40;;
13588;SDS011;6865;52.552;13.434;2022-09-16T06:58:55;7.57;;;2.70;;
13588;SDS011;6865;52.552;13.434;2022-09-16T07:01:23;6.17;;;2.80;;
13588;SDS011;6865;52.552;13.434;2022-09-16T07:03:52;4.57;;;2.10;;
13588;SDS011;6865;52.552;13.434;2022-09-16T07:06:19;4.70;;;2.10;;
13588;SDS011;6865;52.552;13.434;2022-09-16T07:09:03;5.17;;;2.27;;
13588;SDS011;6865;52.552;13.434;2022-09-16T07:11:30;6.20;;;2.40;;
13588;SDS011;6865;52.552;13.434;2022-09-16T07:13:57;4.57;;;2.10;;
13588;SDS011;6865;52.552;13.434;2022-09-16T07:16:25;6.60;;;2.80;;
13588;SDS011;6865;52.552;13.434;2022-09-16T07:18:52;6.63;;;2.30;;
13588;SDS011;6865;52.552;13.434;2022-09-16T07:21:26;6.07;;;2.50;;
13588;SDS011;6865;52.552;13.434;2022-09-16T07:23:55;5.30;;;1.90;;
13588;SDS011;6865;52.552;13.434;2022-09-16T07:26:24;4.20;;;2.50;;
13588;SDS011;6865;52.552;13.434;2022-09-16T07:28:53;9.13;;;2.23;;
13588;SDS011;6865;52.552;13.434;2022-09-16T07:31:21;5.67;;;1.97;;
13588;SDS011;6865;52.552;13.434;2022-09-16T07:33:51;5.13;;;1.77;;
13588;SDS011;6865;52.552;13.434;2022-09-16T07:36:25;7.60;;;2.07;;
13588;SDS011;6865;52.552;13.434;2022-09-16T07:38:55;7.43;;;1.77;;
13588;SDS011;6865;52.552;13.434;2022-09-16T07:41:26;4.07;;;1.90;;
13588;SDS011;6865;52.552;13.434;2022-09-16T07:43:55;3.37;;;2.00;;
13588;SDS011;6865;52.552;13.434;2022-09-16T07:46:27;6.20;;;1.70;;
13588;SDS011;6865;52.552;13.434;2022-09-16T07:48:55;3.53;;;1.90;;
13588;SDS011;6865;52.552;13.434;2022-09-16T07:51:25;6.50;;;2.00;;
13588;SDS011;6865;52.552;13.434;2022-09-16T07:53:54;3.93;;;1.80;;
13588;SDS011;6865;52.552;13.434;2022-09-16T07:56:26;6.30;;;2.03;;
13588;SDS011;6865;52.552;13.434;2022-09-16T07:58:54;2.83;;;1.60;;
13588;SDS011;6865;52.552;13.434;2022-09-16T08:01:22;3.40;;;1.60;;
13588;SDS011;6865;52.552;13.434;2022-09-16T08:03:49;4.37;;;1.43;;
13588;SDS011;6865;52.552;13.434;2022-09-16T08:06:17;3.80;;;1.60;;
13588;SDS011;6865;52.552;13.434;2022-09-16T08:08:46;5.70;;;1.50;;
13588;SDS011;6865;52.552;13.434;2022-09-16T08:11:13;4.37;;;1.70;;
13588;SDS011;6865;52.552;13.434;2022-09-16T08:13:41;5.60;;;1.80;;
13588;SDS011;6865;52.552;13.434;2022-09-16T08:16:18;5.07;;;1.70;;
13588;SDS011;6865;52.552;13.434;2022-09-16T08:18:48;5.43;;;1.50;;
13588;SDS011;6865;52.552;13.434;2022-09-16T08:21:16;5.33;;;1.70;;
13588;SDS011;6865;52.552;13.434;2022-09-16T08:23:45;3.77;;;1.70;;
13588;SDS011;6865;52.552;13.434;2022-09-16T08:26:12;6.20;;;2.00;;
13588;SDS011;6865;52.552;13.434;2022-09-16T08:28:40;4.53;;;1.40;;
13588;SDS011;6865;52.552;13.434;2022-09-16T08:31:27;1.70;;;1.30;;
13588;SDS011;6865;52.552;13.434;2022-09-16T08:33:54;6.90;;;1.60;;
13588;SDS011;6865;52.552;13.434;2022-09-16T08:36:22;5.47;;;1.40;;
13588;SDS011;6865;52.552;13.434;2022-09-16T08:38:54;4.90;;;1.57;;
13588;SDS011;6865;52.552;13.434;2022-09-16T08:41:31;5.23;;;1.70;;
13588;SDS011;6865;52.552;13.434;2022-09-16T08:44:14;6.57;;;1.60;;
13588;SDS011;6865;52.552;13.434;2022-09-16T08:52:34;10.83;;;1.50;;
13588;SDS011;6865;52.552;13.434;2022-09-16T08:55:20;9.37;;;1.60;;
13588;SDS011;6865;52.552;13.434;2022-09-16T08:58:06;4.23;;;1.50;;
13588;SDS011;6865;52.552;13.434;2022-09-16T09:00:40;3.77;;;1.70;;
13588;SDS011;6865;52.552;13.434;2022-09-16T09:05:55;5.23;;;1.40;;
13588;SDS011;6865;52.552;13.434;2022-09-16T09:23:13;5.47;;;1.20;;
13588;SDS011;6865;52.552;13.434;2022-09-16T09:25:46;5.23;;;1.33;;
13588;SDS011;6865;52.552;13.434;2022-09-16T09:28:41;5.10;;;1.60;;
13588;SDS011;6865;52.552;13.434;2022-09-16T09:37:28;4.50;;;1.60;;
13588;SDS011;6865;52.552;13.434;2022-09-16T09:45:42;5.50;;;1.47;;
13588;SDS011;6865;52.552;13.434;2022-09-16T09:48:14;4.97;;;1.63;;
13588;SDS011;6865;52.552;13.434;2022-09-16T09:50:47;7.80;;;1.73;;
13588;SDS011;6865;52.552;13.434;2022-09-16T09:53:32;6.07;;;1.70;;
13588;SDS011;6865;52.552;13.434;2022-09-16T09:56:12;6.07;;;1.73;;
13588;SDS011;6865;52.552;13.434;2022-09-16T10:01:19;8.57;;;1.67;;
13588;SDS011;6865;52.552;13.434;2022-09-16T10:03:49;5.63;;;1.53;;
13588;SDS011;6865;52.552;13.434;2022-09-16T10:06:18;6.23;;;1.50;;
13588;SDS011;6865;52.552;13.434;2022-09-16T10:08:53;3.93;;;1.50;;
13588;SDS011;6865;52.552;13.434;2022-09-16T10:11:24;4.33;;;1.60;;
13588;SDS011;6865;52.552;13.434;2022-09-16T10:13:56;9.50;;;1.83;;
13588;SDS011;6865;52.552;13.434;2022-09-16T10:16:34;6.18;;;1.60;;
13588;SDS011;6865;52.552;13.434;2022-09-16T10:19:07;9.37;;;1.63;;
13588;SDS011;6865;52.552;13.434;2022-09-16T10:21:47;6.07;;;1.50;;
13588;SDS011;6865;52.552;13.434;2022-09-16T10:24:28;8.07;;;1.70;;
13588;SDS011;6865;52.552;13.434;2022-09-16T10:26:58;6.43;;;1.50;;
13588;SDS011;6865;52.552;13.434;2022-09-16T10:29:26;6.18;;;1.73;;
13588;SDS011;6865;52.552;13.434;2022-09-16T10:31:53;5.43;;;1.73;;
13588;SDS011;6865;52.552;13.434;2022-09-16T10:34:27;7.10;;;1.70;;
13588;SDS011;6865;52.552;13.434;2022-09-16T10:36:58;10.47;;;1.67;;
13588;SDS011;6865;52.552;13.434;2022-09-16T10:39:31;6.60;;;1.70;;
13588;SDS011;6865;52.552;13.434;2022-09-16T10:41:58;7.63;;;1.73;;
13588;SDS011;6865;52.552;13.434;2022-09-16T10:44:29;4.40;;;1.40;;
13588;SDS011;6865;52.552;13.434;2022-09-16T10:46:59;7.20;;;1.38;;
13588;SDS011;6865;52.552;13.434;2022-09-16T10:49:32;5.03;;;1.37;;
13588;SDS011;6865;52.552;13.434;2022-09-16T10:52:07;6.93;;;1.50;;
13588;SDS011;6865;52.552;13.434;2022-09-16T10:54:43;4.00;;;1.33;;
13588;SDS011;6865;52.552;13.434;2022-09-16T10:57:19;6.70;;;1.57;;
13588;SDS011;6865;52.552;13.434;2022-09-16T10:59:58;3.93;;;1.30;;
13588;SDS011;6865;52.552;13.434;2022-09-16T11:08:38;5.30;;;1.40;;
13588;SDS011;6865;52.552;13.434;2022-09-16T11:11:46;3.97;;;1.23;;
13588;SDS011;6865;52.552;13.434;2022-09-16T11:17:12;11.23;;;1.87;;
13588;SDS011;6865;52.552;13.434;2022-09-16T11:22:56;6.93;;;1.67;;
13588;SDS011;6865;52.552;13.434;2022-09-16T11:25:42;5.80;;;1.50;;
13588;SDS011;6865;52.552;13.434;2022-09-16T11:28:20;6.63;;;1.50;;
13588;SDS011;6865;52.552;13.434;2022-09-16T11:34:07;6.13;;;1.17;;
13588;SDS011;6865;52.552;13.434;2022-09-16T11:37:00;5.70;;;1.73;;
13588;SDS011;6865;52.552;13.434;2022-09-16T11:48:08;6.97;;;1.60;;
13588;SDS011;6865;52.552;13.434;2022-09-16T11:50:58;3.53;;;1.20;;
13588;SDS011;6865;52.552;13.434;2022-09-16T11:53:50;3.95;;;1.40;;
13588;SDS011;6865;52.552;13.434;2022-09-16T11:56:43;5.03;;;1.58;;
13588;SDS011;6865;52.552;13.434;2022-09-16T11:59:26;8.35;;;1.48;;
13588;SDS011;6865;52.552;13.434;2022-09-16T12:02:20;5.93;;;1.55;;
13588;SDS011;6865;52.552;13.434;2022-09-16T12:04:57;4.90;;;1.73;;
13588;SDS011;6865;52.552;13.434;2022-09-16T12:07:41;5.57;;;1.70;;
13588;SDS011;6865;52.552;13.434;2022-09-16T12:10:32;4.68;;;1.30;;
13588;SDS011;6865;52.552;13.434;2022-09-16T12:13:19;3.63;;;1.33;;
13588;SDS011;6865;52.552;13.434;2022-09-16T12:15:53;6.97;;;1.30;;
13588;SDS011;6865;52.552;13.434;2022-09-16T12:18:25;4.93;;;1.42;;
13588;SDS011;6865;52.552;13.434;2022-09-16T12:21:05;5.82;;;1.38;;
13588;SDS011;6865;52.552;13.434;2022-09-16T12:23:52;5.68;;;1.30;;
13588;SDS011;6865;52.552;13.434;2022-09-16T12:26:43;8.40;;;1.50;;
13588;SDS011;6865;52.552;13.434;2022-09-16T12:29:26;3.00;;;1.27;;
13588;SDS011;6865;52.552;13.434;2022-09-16T12:32:09;1.98;;;1.10;;
13588;SDS011;6865;52.552;13.434;2022-09-16T12:34:48;3.22;;;1.20;;
13588;SDS011;6865;52.552;13.434;2022-09-16T12:37:27;3.13;;;1.30;;
13588;SDS011;6865;52.552;13.434;2022-09-16T12:40:17;6.05;;;1.45;;
13588;SDS011;6865;52.552;13.434;2022-09-16T12:43:03;3.78;;;1.40;;
13588;SDS011;6865;52.552;13.434;2022-09-16T12:45:43;6.32;;;1.45;;
13588;SDS011;6865;52.552;13.434;2022-09-16T12:52:03;3.33;;;1.23;;
13588;SDS011;6865;52.552;13.434;2022-09-16T12:54:54;3.05;;;1.10;;
13588;SDS011;6865;52.552;13.434;2022-09-16T13:00:48;5.03;;;1.25;;
13588;SDS011;6865;52.552;13.434;2022-09-16T13:03:42;4.85;;;1.35;;
13588;SDS011;6865;52.552;13.434;2022-09-16T13:06:22;3.10;;;1.20;;
13588;SDS011;6865;52.552;13.434;2022-09-16T13:08:54;3.47;;;1.30;;
13588;SDS011;6865;52.552;13.434;2022-09-16T13:11:23;11.82;;;1.92;;
13588;SDS011;6865;52.552;13.434;2022-09-16T13:14:23;4.93;;;1.30;;
13588;SDS011;6865;52.552;13.434;2022-09-16T13:16:56;6.53;;;1.60;;
13588;SDS011;6865;52.552;13.434;2022-09-16T13:19:30;3.28;;;1.33;;
13588;SDS011;6865;52.552;13.434;2022-09-16T13:24:47;3.63;;;1.35;;
13588;SDS011;6865;52.552;13.434;2022-09-16T13:27:24;2.72;;;1.20;;
13588;SDS011;6865;52.552;13.434;2022-09-16T13:30:03;4.38;;;1.17;;
13588;SDS011;6865;52.552;13.434;2022-09-16T13:32:55;5.70;;;1.50;;
13588;SDS011;6865;52.552;13.434;2022-09-16T13:37:57;6.38;;;1.50;;
13588;SDS011;6865;52.552;13.434;2022-09-16T13:40:26;3.42;;;1.35;;
13588;SDS011;6865;52.552;13.434;2022-09-16T13:48:15;3.75;;;1.30;;
13588;SDS011;6865;52.552;13.434;2022-09-16T13:50:44;3.63;;;1.13;;
13588;SDS011;6865;52.552;13.434;2022-09-16T13:53:19;4.68;;;1.33;;
13588;SDS011;6865;52.552;13.434;2022-09-16T13:55:52;11.32;;;1.55;;
13588;SDS011;6865;52.552;13.434;2022-09-16T13:58:55;3.22;;;1.40;;
13588;SDS011;6865;52.552;13.434;2022-09-16T14:01:36;4.47;;;1.27;;
13588;SDS011;6865;52.552;13.434;2022-09-16T14:13:13;3.80;;;1.17;;
13588;SDS011;6865;52.552;13.434;2022-09-16T14:15:45;4.25;;;1.40;;
13588;SDS011;6865;52.552;13.434;2022-09-16T14:18:22;10.10;;;1.38;;
13588;SDS011;6865;52.552;13.434;2022-09-16T14:20:59;5.13;;;1.30;;
13588;SDS011;6865;52.552;13.434;2022-09-16T14:23:26;4.93;;;1.20;;
13588;SDS011;6865;52.552;13.434;2022-09-16T14:25:54;4.45;;;1.50;;
13588;SDS011;6865;52.552;13.434;2022-09-16T14:28:26;4.75;;;1.27;;
13588;SDS011;6865;52.552;13.434;2022-09-16T14:30:57;3.75;;;1.10;;
13588;SDS011;6865;52.552;13.434;2022-09-16T14:33:32;7.18;;;1.50;;
13588;SDS011;6865;52.552;13.434;2022-09-16T14:36:36;6.72;;;1.30;;
13588;SDS011;6865;52.552;13.434;2022-09-16T14:39:01;7.32;;;1.42;;
13588;SDS011;6865;52.552;13.434;2022-09-16T14:41:50;8.98;;;1.52;;
13588;SDS011;6865;52.552;13.434;2022-09-16T14:46:47;4.60;;;1.50;;
13588;SDS011;6865;52.552;13.434;2022-09-16T14:49:19;7.68;;;1.63;;
13588;SDS011;6865;52.552;13.434;2022-09-16T14:51:50;6.75;;;1.30;;
13588;SDS011;6865;52.552;13.434;2022-09-16T14:54:21;4.97;;;1.80;;
13588;SDS011;6865;52.552;13.434;2022-09-16T14:59:31;10.07;;;1.40;;
13588;SDS011;6865;52.552;13.434;2022-09-16T15:02:05;8.68;;;1.50;;
13588;SDS011;6865;52.552;13.434;2022-09-16T15:04:42;4.85;;;1.30;;
13588;SDS011;6865;52.552;13.434;2022-09-16T15:07:18;5.88;;;1.23;;
13588;SDS011;6865;52.552;13.434;2022-09-16T15:09:53;9.52;;;1.40;;
13588;SDS011;6865;52.552;13.434;2022-09-16T15:13:14;3.92;;;1.30;;
13588;SDS011;6865;52.552;13.434;2022-09-16T15:15:24;5.03;;;1.70;;
13588;SDS011;6865;52.552;13.434;2022-09-16T15:17:56;2.90;;;1.30;;
13588;SDS011;6865;52.552;13.434;2022-09-16T15:20:31;4.72;;;1.40;;
13588;SDS011;6865;52.552;13.434;2022-09-16T15:23:00;3.67;;;1.57;;
13588;SDS011;6865;52.552;13.434;2022-09-16T15:25:32;6.57;;;1.50;;
13588;SDS011;6865;52.552;13.434;2022-09-16T15:28:15;7.25;;;1.30;;
13588;SDS011;6865;52.552;13.434;2022-09-16T15:30:43;2.70;;;1.27;;
13588;SDS011;6865;52.552;13.434;2022-09-16T15:33:22;6.15;;;1.33;;
13588;SDS011;6865;52.552;13.434;2022-09-16T15:35:59;9.20;;;1.92;;
13588;SDS011;6865;52.552;13.434;2022-09-16T15:38:27;4.07;;;1.50;;
13588;SDS011;6865;52.552;13.434;2022-09-16T15:41:04;6.47;;;1.48;;
13588;SDS011;6865;52.552;13.434;2022-09-16T15:43:37;6.53;;;1.73;;
13588;SDS011;6865;52.552;13.434;2022-09-16T15:46:14;3.80;;;1.65;;
13588;SDS011;6865;52.552;13.434;2022-09-16T15:48:50;4.28;;;1.20;;
13588;SDS011;6865;52.552;13.434;2022-09-16T15:53:58;6.75;;;1.40;;
13588;SDS011;6865;52.552;13.434;2022-09-16T15:57:02;5.80;;;1.55;;
13588;SDS011;6865;52.552;13.434;2022-09-16T16:02:57;6.18;;;1.90;;
13588;SDS011;6865;52.552;13.434;2022-09-16T16:05:28;5.28;;;1.58;;
13588;SDS011;6865;52.552;13.434;2022-09-16T16:07:57;7.18;;;1.90;;
13588;SDS011;6865;52.552;13.434;2022-09-16T16:10:32;3.92;;;1.38;;
13588;SDS011;6865;52.552;13.434;2022-09-16T16:13:01;11.05;;;2.25;;
13588;SDS011;6865;52.552;13.434;2022-09-16T16:15:32;5.47;;;1.70;;
13588;SDS011;6865;52.552;13.434;2022-09-16T16:18:02;5.65;;;1.40;;
13588;SDS011;6865;52.552;13.434;2022-09-16T16:20:31;8.50;;;1.80;;
13588;SDS011;6865;52.552;13.434;2022-09-16T16:22:59;6.80;;;1.67;;
13588;SDS011;6865;52.552;13.434;2022-09-16T16:25:26;6.55;;;1.58;;
13588;SDS011;6865;52.552;13.434;2022-09-16T16:27:53;5.87;;;1.90;;
13588;SDS011;6865;52.552;13.434;2022-09-16T16:30:20;6.45;;;2.13;;
13588;SDS011;6865;52.552;13.434;2022-09-16T16:32:47;9.47;;;2.33;;
13588;SDS011;6865;52.552;13.434;2022-09-16T16:35:13;4.30;;;1.67;;
13588;SDS011;6865;52.552;13.434;2022-09-16T16:37:40;5.72;;;2.05;;
13588;SDS011;6865;52.552;13.434;2022-09-16T16:40:12;5.32;;;1.88;;
13588;SDS011;6865;52.552;13.434;2022-09-16T16:42:40;8.65;;;2.17;;
13588;SDS011;6865;52.552;13.434;2022-09-16T16:45:10;10.20;;;2.50;;
13588;SDS011;6865;52.552;13.434;2022-09-16T16:47:38;5.53;;;1.25;;
13588;SDS011;6865;52.552;13.434;2022-09-16T16:50:05;7.13;;;1.70;;
13588;SDS011;6865;52.552;13.434;2022-09-16T16:52:32;4.80;;;1.90;;
13588;SDS011;6865;52.552;13.434;2022-09-16T16:54:58;7.73;;;1.77;;
13588;SDS011;6865;52.552;13.434;2022-09-16T16:57:25;7.27;;;1.70;;
13588;SDS011;6865;52.552;13.434;2022-09-16T16:59:51;8.40;;;2.10;;
13588;SDS011;6865;52.552;13.434;2022-09-16T17:02:18;9.37;;;3.93;;
13588;SDS011;6865;52.552;13.434;2022-09-16T17:04:45;7.17;;;1.60;;
13588;SDS011;6865;52.552;13.434;2022-09-16T17:07:12;4.93;;;1.73;;
13588;SDS011;6865;52.552;13.434;2022-09-16T17:09:54;9.67;;;1.80;;
13588;SDS011;6865;52.552;13.434;2022-09-16T17:12:24;5.00;;;1.80;;
13588;SDS011;6865;52.552;13.434;2022-09-16T17:14:51;9.73;;;1.60;;
13588;SDS011;6865;52.552;13.434;2022-09-16T17:17:18;5.43;;;1.70;;
13588;SDS011;6865;52.552;13.434;2022-09-16T17:19:45;11.30;;;1.90;;